createdAt,value
2017-10-10T00:00:22.292Z,83.76
2017-10-10T00:01:22.286Z,83.86
2017-10-10T00:02:22.296Z,84.23
2017-10-10T00:03:22.291Z,83.95
2017-10-10T00:04:22.313Z,84.43
2017-10-10T00:05:22.319Z,84.23
2017-10-10T00:06:22.328Z,84.33
2017-10-10T00:07:22.323Z,84.23
2017-10-10T00:08:22.335Z,84.23
2017-10-10T00:09:22.338Z,84.33
2017-10-10T00:10:22.357Z,84.81
2017-10-10T00:11:22.357Z,84.72
2017-10-10T00:12:22.387Z,84.33
2017-10-10T00:13:22.390Z,84.14
2017-10-10T00:14:22.409Z,84.14
2017-10-10T00:15:22.371Z,84.14
2017-10-10T00:16:22.409Z,83.57
2017-10-10T00:17:22.422Z,83.76
2017-10-10T00:18:22.400Z,83.67
2017-10-10T00:19:22.438Z,83.28
2017-10-10T00:20:22.425Z,83.09
2017-10-10T00:21:22.433Z,82.81
2017-10-10T00:22:22.433Z,82.71
2017-10-10T00:23:22.470Z,82.81
2017-10-10T00:24:22.497Z,83.09
2017-10-10T00:25:22.467Z,82.61
2017-10-10T00:26:22.488Z,82.90
2017-10-10T00:27:22.476Z,82.71
2017-10-10T00:28:22.489Z,82.52
2017-10-10T00:29:22.532Z,82.71
2017-10-10T00:30:22.505Z,81.76
2017-10-10T00:31:22.513Z,80.28
2017-10-10T00:32:22.518Z,80.19
2017-10-10T00:33:22.518Z,80.47
2017-10-10T00:34:22.526Z,80.66
2017-10-10T00:35:22.545Z,80.19
2017-10-10T00:36:22.552Z,79.90
2017-10-10T00:37:22.559Z,80.28
2017-10-10T00:38:22.552Z,80.47
2017-10-10T00:39:22.571Z,80.19
2017-10-10T00:40:22.570Z,80.85
2017-10-10T00:41:22.596Z,80.38
2017-10-10T00:42:22.593Z,80.09
2017-10-10T00:43:22.595Z,80.09
2017-10-10T00:44:22.594Z,80.85
2017-10-10T00:45:22.599Z,80.47
2017-10-10T00:46:22.617Z,80.57
2017-10-10T00:47:22.631Z,80.19
2017-10-10T00:48:22.621Z,79.96
2017-10-10T00:49:22.618Z,80.43
2017-10-10T00:50:22.666Z,79.96
2017-10-10T00:51:22.628Z,80.33
2017-10-10T00:52:22.703Z,80.05
2017-10-10T00:53:22.668Z,80.43
2017-10-10T00:54:22.676Z,79.96
2017-10-10T00:55:22.674Z,80.05
2017-10-10T00:56:22.677Z,80.72
2017-10-10T00:57:22.695Z,80.53
2017-10-10T00:58:22.714Z,79.96
2017-10-10T00:59:22.700Z,80.62
2017-10-10T01:00:22.713Z,80.81
2017-10-10T01:01:22.706Z,80.81
2017-10-10T01:02:22.761Z,81.29
2017-10-10T01:03:22.723Z,81.01
2017-10-10T01:04:22.726Z,81.38
2017-10-10T01:05:22.755Z,81.29
2017-10-10T01:06:22.752Z,80.87
2017-10-10T01:07:22.760Z,80.91
2017-10-10T01:08:22.787Z,81.25
2017-10-10T01:09:22.790Z,81.01
2017-10-10T01:10:22.777Z,81.15
2017-10-10T01:11:22.774Z,80.77
2017-10-10T01:12:22.791Z,80.58
2017-10-10T01:13:22.782Z,80.68
2017-10-10T01:14:22.795Z,80.87
2017-10-10T01:15:22.842Z,81.15
2017-10-10T01:16:22.830Z,81.15
2017-10-10T01:17:22.852Z,81.06
2017-10-10T01:18:22.855Z,80.58
2017-10-10T01:19:22.824Z,80.77
2017-10-10T01:20:22.836Z,80.49
2017-10-10T01:21:22.843Z,81.25
2017-10-10T01:22:22.838Z,80.96
2017-10-10T01:23:22.861Z,81.54
2017-10-10T01:24:22.862Z,81.73
2017-10-10T01:25:22.862Z,81.73
2017-10-10T01:26:22.874Z,82.01
2017-10-10T01:27:22.898Z,81.54
2017-10-10T01:28:22.887Z,82.01
2017-10-10T01:29:22.931Z,82.01
2017-10-10T01:30:22.906Z,82.49
2017-10-10T01:31:22.909Z,82.20
2017-10-10T01:32:22.993Z,82.40
2017-10-10T01:33:22.962Z,82.78
2017-10-10T01:34:22.934Z,82.97
2017-10-10T01:35:22.935Z,82.68
2017-10-10T01:36:22.957Z,82.59
2017-10-10T01:37:31.701Z,82.59
2017-10-10T01:38:22.976Z,82.68
2017-10-10T01:39:22.952Z,83.35
2017-10-10T01:40:22.976Z,83.25
2017-10-10T01:41:22.994Z,82.59
2017-10-10T01:42:22.992Z,82.78
2017-10-10T01:43:23.012Z,82.87
2017-10-10T01:44:23.009Z,82.49
2017-10-10T01:45:22.989Z,82.87
2017-10-10T01:46:22.993Z,83.16
2017-10-10T01:47:23.040Z,84.01
2017-10-10T01:48:23.019Z,84.11
2017-10-10T01:49:23.018Z,84.78
2017-10-10T01:50:23.051Z,84.97
2017-10-10T01:51:23.034Z,85.64
2017-10-10T01:52:23.035Z,84.78
2017-10-10T01:53:23.050Z,85.06
2017-10-10T01:54:23.071Z,85.02
2017-10-10T01:55:23.073Z,84.69
2017-10-10T01:56:23.102Z,85.06
2017-10-10T01:57:23.109Z,84.69
2017-10-10T01:58:23.128Z,85.73
2017-10-10T01:59:23.074Z,85.64
2017-10-10T02:00:23.117Z,85.35
2017-10-10T02:01:23.087Z,85.73
2017-10-10T02:02:23.114Z,86.21
2017-10-10T02:03:23.095Z,86.02
2017-10-10T02:04:23.112Z,86.11
2017-10-10T02:05:23.109Z,86.11
2017-10-10T02:06:23.119Z,85.93
2017-10-10T02:07:23.161Z,85.73
2017-10-10T02:08:23.150Z,86.11
2017-10-10T02:09:23.162Z,85.25
2017-10-10T02:10:23.153Z,85.35
2017-10-10T02:11:23.166Z,85.25
2017-10-10T02:12:23.147Z,84.97
2017-10-10T02:13:23.169Z,84.88
2017-10-10T02:14:23.167Z,83.64
2017-10-10T02:15:23.205Z,83.16
2017-10-10T02:16:23.199Z,83.35
2017-10-10T02:17:23.209Z,83.64
2017-10-10T02:18:23.195Z,83.64
2017-10-10T02:19:23.206Z,83.64
2017-10-10T02:20:23.215Z,84.11
2017-10-10T02:21:23.214Z,84.01
2017-10-10T02:22:23.248Z,84.01
2017-10-10T02:23:23.256Z,83.92
2017-10-10T02:24:23.262Z,83.83
2017-10-10T02:25:23.284Z,83.44
2017-10-10T02:26:23.264Z,83.64
2017-10-10T02:27:23.265Z,83.64
2017-10-10T02:28:23.271Z,84.20
2017-10-10T02:29:23.279Z,84.11
2017-10-10T02:30:23.283Z,83.92
2017-10-10T02:31:23.317Z,83.83
2017-10-10T02:32:23.302Z,84.01
2017-10-10T02:33:23.334Z,84.01
2017-10-10T02:34:23.304Z,83.83
2017-10-10T02:35:23.309Z,84.20
2017-10-10T02:36:23.315Z,83.35
2017-10-10T02:37:23.311Z,83.35
2017-10-10T02:38:23.327Z,84.11
2017-10-10T02:39:23.355Z,84.01
2017-10-10T02:40:23.352Z,84.07
2017-10-10T02:41:23.347Z,83.12
2017-10-10T02:42:23.380Z,82.73
2017-10-10T02:43:23.401Z,82.26
2017-10-10T02:44:23.390Z,82.26
2017-10-10T02:45:23.362Z,82.64
2017-10-10T02:46:23.373Z,81.88
2017-10-10T02:47:23.375Z,81.21
2017-10-10T02:48:23.387Z,81.02
2017-10-10T02:49:23.403Z,81.30
2017-10-10T02:50:23.391Z,81.49
2017-10-10T02:51:23.431Z,81.02
2017-10-10T02:52:23.419Z,81.49
2017-10-10T02:53:23.417Z,83.12
2017-10-10T02:54:23.444Z,84.64
2017-10-10T02:55:23.442Z,85.31
2017-10-10T02:56:23.467Z,86.16
2017-10-10T02:57:23.473Z,85.97
2017-10-10T02:58:23.439Z,86.07
2017-10-10T02:59:23.470Z,85.88
2017-10-10T03:00:23.458Z,85.69
2017-10-10T03:01:23.473Z,85.97
2017-10-10T03:02:23.480Z,85.69
2017-10-10T03:03:23.490Z,85.97
2017-10-10T03:04:23.510Z,85.69
2017-10-10T03:05:23.535Z,85.50
2017-10-10T03:06:23.528Z,85.50
2017-10-10T03:07:23.515Z,85.31
2017-10-10T03:08:23.505Z,84.83
2017-10-10T03:09:23.526Z,86.07
2017-10-10T03:10:23.533Z,85.50
2017-10-10T03:11:23.532Z,85.78
2017-10-10T03:12:23.532Z,85.78
2017-10-10T03:13:23.580Z,86.16
2017-10-10T03:14:23.547Z,85.21
2017-10-10T03:15:23.565Z,85.31
2017-10-10T03:16:23.593Z,85.21
2017-10-10T03:17:23.562Z,85.21
2017-10-10T03:18:23.573Z,85.02
2017-10-10T03:19:23.588Z,85.31
2017-10-10T03:20:23.625Z,84.74
2017-10-10T03:21:23.605Z,84.07
2017-10-10T03:22:23.584Z,82.92
2017-10-10T03:23:23.598Z,82.73
2017-10-10T03:24:23.636Z,82.83
2017-10-10T03:25:23.608Z,82.54
2017-10-10T03:26:23.639Z,82.35
2017-10-10T03:27:23.622Z,82.35
2017-10-10T03:28:23.638Z,81.97
2017-10-10T03:29:23.632Z,81.97
2017-10-10T03:30:23.645Z,83.31
2017-10-10T03:31:23.649Z,83.93
2017-10-10T03:32:23.665Z,83.59
2017-10-10T03:33:23.646Z,83.12
2017-10-10T03:34:23.657Z,83.07
2017-10-10T03:35:23.664Z,83.55
2017-10-10T03:36:23.704Z,82.60
2017-10-10T03:37:23.730Z,83.17
2017-10-10T03:38:23.718Z,82.89
2017-10-10T03:39:23.720Z,82.98
2017-10-10T03:40:23.704Z,83.12
2017-10-10T03:41:23.728Z,83.36
2017-10-10T03:42:23.721Z,83.36
2017-10-10T03:43:23.718Z,83.55
2017-10-10T03:44:23.715Z,83.74
2017-10-10T03:45:23.728Z,84.22
2017-10-10T03:46:23.775Z,84.92
2017-10-10T03:47:23.759Z,84.92
2017-10-10T03:48:23.769Z,85.97
2017-10-10T03:49:23.765Z,85.50
2017-10-10T03:50:23.773Z,85.88
2017-10-10T03:51:23.769Z,85.97
2017-10-10T03:52:23.785Z,85.69
2017-10-10T03:53:23.799Z,86.07
2017-10-10T03:54:23.793Z,85.69
2017-10-10T03:55:23.786Z,86.16
2017-10-10T03:56:23.802Z,86.07
2017-10-10T03:57:23.809Z,85.97
2017-10-10T03:58:23.839Z,85.60
2017-10-10T03:59:23.828Z,86.07
2017-10-10T04:00:23.819Z,85.41
2017-10-10T04:01:23.825Z,85.78
2017-10-10T04:02:23.845Z,86.36
2017-10-10T04:03:23.834Z,86.36
2017-10-10T04:04:23.856Z,86.45
2017-10-10T04:05:23.883Z,86.07
2017-10-10T04:06:23.848Z,85.69
2017-10-10T04:07:23.859Z,85.97
2017-10-10T04:08:23.875Z,85.97
2017-10-10T04:09:23.905Z,86.16
2017-10-10T04:10:23.889Z,85.97
2017-10-10T04:11:23.886Z,85.88
2017-10-10T04:12:23.888Z,86.55
2017-10-10T04:13:23.902Z,86.36
2017-10-10T04:14:23.911Z,85.88
2017-10-10T04:15:23.908Z,85.97
2017-10-10T04:16:23.915Z,85.69
2017-10-10T04:17:23.921Z,85.69
2017-10-10T04:18:23.940Z,86.07
2017-10-10T04:19:23.939Z,86.55
2017-10-10T04:20:23.943Z,86.16
2017-10-10T04:21:23.947Z,85.31
2017-10-10T04:22:23.943Z,85.88
2017-10-10T04:23:24.002Z,86.16
2017-10-10T04:24:23.988Z,86.16
2017-10-10T04:25:23.968Z,86.26
2017-10-10T04:26:23.986Z,85.69
2017-10-10T04:27:23.976Z,85.60
2017-10-10T04:28:24.005Z,86.07
2017-10-10T04:29:23.985Z,86.07
2017-10-10T04:30:24.067Z,85.97
2017-10-10T04:31:24.017Z,86.16
2017-10-10T04:32:24.008Z,85.78
2017-10-10T04:33:24.036Z,86.55
2017-10-10T04:34:24.059Z,85.88
2017-10-10T04:35:24.049Z,86.07
2017-10-10T04:36:24.054Z,86.07
2017-10-10T04:37:24.042Z,85.60
2017-10-10T04:38:24.044Z,85.60
2017-10-10T04:39:24.066Z,85.69
2017-10-10T04:40:24.072Z,85.69
2017-10-10T04:41:24.070Z,85.69
2017-10-10T04:42:24.115Z,85.54
2017-10-10T04:43:24.083Z,85.69
2017-10-10T04:44:24.124Z,85.45
2017-10-10T04:45:24.112Z,85.16
2017-10-10T04:46:24.142Z,85.83
2017-10-10T04:47:24.096Z,85.35
2017-10-10T04:48:24.146Z,85.73
2017-10-10T04:49:24.146Z,85.64
2017-10-10T04:50:24.129Z,85.83
2017-10-10T04:51:24.125Z,85.35
2017-10-10T04:52:24.127Z,85.54
2017-10-10T04:53:24.142Z,85.35
2017-10-10T04:54:24.145Z,85.54
2017-10-10T04:55:24.152Z,85.45
2017-10-10T04:56:24.159Z,85.35
2017-10-10T04:57:24.160Z,85.64
2017-10-10T04:58:24.169Z,84.88
2017-10-10T04:59:24.207Z,85.06
2017-10-10T05:00:24.183Z,84.88
2017-10-10T05:01:24.206Z,84.88
2017-10-10T05:02:24.203Z,85.16
2017-10-10T05:03:24.214Z,84.88
2017-10-10T05:04:24.231Z,84.78
2017-10-10T05:05:24.239Z,84.78
2017-10-10T05:06:24.228Z,84.01
2017-10-10T05:07:24.240Z,84.11
2017-10-10T05:08:24.228Z,84.97
2017-10-10T05:09:24.251Z,84.92
2017-10-10T05:10:24.261Z,85.60
2017-10-10T05:11:24.254Z,86.16
2017-10-10T05:12:24.270Z,85.97
2017-10-10T05:13:24.302Z,85.88
2017-10-10T05:14:24.279Z,86.45
2017-10-10T05:15:24.288Z,86.36
2017-10-10T05:16:24.303Z,86.65
2017-10-10T05:17:24.283Z,86.36
2017-10-10T05:18:24.298Z,86.26
2017-10-10T05:19:24.298Z,87.02
2017-10-10T05:20:24.312Z,86.93
2017-10-10T05:21:24.315Z,87.12
2017-10-10T05:22:24.318Z,86.93
2017-10-10T05:23:24.325Z,87.02
2017-10-10T05:24:24.350Z,86.93
2017-10-10T05:25:24.368Z,86.69
2017-10-10T05:26:24.357Z,86.49
2017-10-10T05:27:24.357Z,86.93
2017-10-10T05:28:24.368Z,86.78
2017-10-10T05:29:24.390Z,87.07
2017-10-10T05:30:24.384Z,87.45
2017-10-10T05:31:24.371Z,86.78
2017-10-10T05:32:24.406Z,86.21
2017-10-10T05:33:24.396Z,86.49
2017-10-10T05:34:24.398Z,86.88
2017-10-10T05:35:24.411Z,86.59
2017-10-10T05:36:24.399Z,86.59
2017-10-10T05:37:24.407Z,86.98
2017-10-10T05:38:24.423Z,87.26
2017-10-10T05:39:24.427Z,87.07
2017-10-10T05:40:24.460Z,87.26
2017-10-10T05:41:24.455Z,86.98
2017-10-10T05:42:24.474Z,86.98
2017-10-10T05:43:24.455Z,86.98
2017-10-10T05:44:24.473Z,87.26
2017-10-10T05:45:24.485Z,87.45
2017-10-10T05:46:24.495Z,87.45
2017-10-10T05:47:24.483Z,87.26
2017-10-10T05:48:24.483Z,87.07
2017-10-10T05:49:24.504Z,87.40
2017-10-10T05:50:24.531Z,86.98
2017-10-10T05:51:24.522Z,86.35
2017-10-10T05:52:24.523Z,85.73
2017-10-10T05:53:24.527Z,85.39
2017-10-10T05:54:24.549Z,85.68
2017-10-10T05:55:24.533Z,86.25
2017-10-10T05:56:24.550Z,85.77
2017-10-10T05:57:24.566Z,85.21
2017-10-10T05:58:24.578Z,85.87
2017-10-10T05:59:24.561Z,85.49
2017-10-10T06:00:24.591Z,85.30
2017-10-10T06:01:24.578Z,85.39
2017-10-10T06:02:24.580Z,85.58
2017-10-10T06:03:24.588Z,85.11
2017-10-10T06:04:24.591Z,84.82
2017-10-10T06:05:24.600Z,84.82
2017-10-10T06:06:24.610Z,85.39
2017-10-10T06:07:24.663Z,85.30
2017-10-10T06:08:24.641Z,84.72
2017-10-10T06:09:24.622Z,84.92
2017-10-10T06:10:24.629Z,85.11
2017-10-10T06:11:24.649Z,85.54
2017-10-10T06:12:24.642Z,86.06
2017-10-10T06:13:24.651Z,86.11
2017-10-10T06:14:24.661Z,86.16
2017-10-10T06:15:24.695Z,85.77
2017-10-10T06:16:24.686Z,86.16
2017-10-10T06:17:24.672Z,85.77
2017-10-10T06:18:24.698Z,86.25
2017-10-10T06:19:24.716Z,85.97
2017-10-10T06:20:24.688Z,85.68
2017-10-10T06:21:24.737Z,85.39
2017-10-10T06:22:24.713Z,85.58
2017-10-10T06:23:24.711Z,85.39
2017-10-10T06:24:24.733Z,85.30
2017-10-10T06:25:24.731Z,85.68
2017-10-10T06:26:24.758Z,85.39
2017-10-10T06:27:24.741Z,85.87
2017-10-10T06:28:24.756Z,85.77
2017-10-10T06:29:24.749Z,85.77
2017-10-10T06:30:24.777Z,85.58
2017-10-10T06:31:24.782Z,85.30
2017-10-10T06:32:24.800Z,85.63
2017-10-10T06:33:24.806Z,85.91
2017-10-10T06:34:24.797Z,85.63
2017-10-10T06:35:24.793Z,85.53
2017-10-10T06:36:24.794Z,85.34
2017-10-10T06:37:24.799Z,85.53
2017-10-10T06:38:24.810Z,85.63
2017-10-10T06:39:24.848Z,85.34
2017-10-10T06:40:24.824Z,84.67
2017-10-10T06:41:24.841Z,84.77
2017-10-10T06:42:24.858Z,85.15
2017-10-10T06:43:24.848Z,85.44
2017-10-10T06:44:24.882Z,84.96
2017-10-10T06:45:24.870Z,85.05
2017-10-10T06:46:24.890Z,85.34
2017-10-10T06:47:24.905Z,84.86
2017-10-10T06:48:24.876Z,85.15
2017-10-10T06:49:24.900Z,85.82
2017-10-10T06:50:24.900Z,85.53
2017-10-10T06:51:24.919Z,84.96
2017-10-10T06:52:24.936Z,84.67
2017-10-10T06:53:24.918Z,84.33
2017-10-10T06:54:24.940Z,84.81
2017-10-10T06:55:24.946Z,84.91
2017-10-10T06:56:24.941Z,85.00
2017-10-10T06:57:24.953Z,85.19
2017-10-10T06:58:24.965Z,85.29
2017-10-10T06:59:24.964Z,84.81
2017-10-10T07:00:25.023Z,84.52
2017-10-10T07:01:24.981Z,83.76
2017-10-10T07:02:24.990Z,83.76
2017-10-10T07:03:24.998Z,83.76
2017-10-10T07:04:25.002Z,84.23
2017-10-10T07:05:25.011Z,84.14
2017-10-10T07:06:25.046Z,84.52
2017-10-10T07:07:25.040Z,84.43
2017-10-10T07:08:25.032Z,84.81
2017-10-10T07:09:25.048Z,85.00
2017-10-10T07:10:25.079Z,83.76
2017-10-10T07:11:25.063Z,84.33
2017-10-10T07:12:25.078Z,83.95
2017-10-10T07:13:25.070Z,83.95
2017-10-10T07:14:25.077Z,83.76
2017-10-10T07:15:25.084Z,84.43
2017-10-10T07:16:25.113Z,84.23
2017-10-10T07:17:25.095Z,83.95
2017-10-10T07:18:25.098Z,83.38
2017-10-10T07:19:25.110Z,83.76
2017-10-10T07:20:25.154Z,83.76
2017-10-10T07:21:25.126Z,82.90
2017-10-10T07:22:25.136Z,82.90
2017-10-10T07:23:25.137Z,83.18
2017-10-10T07:24:25.155Z,84.43
2017-10-10T07:25:25.163Z,84.14
2017-10-10T07:26:25.203Z,83.86
2017-10-10T07:27:25.174Z,84.33
2017-10-10T07:28:25.200Z,84.91
2017-10-10T07:29:25.193Z,84.62
2017-10-10T07:30:25.231Z,85.24
2017-10-10T07:31:25.200Z,84.85
2017-10-10T07:32:25.216Z,85.24
2017-10-10T07:33:25.231Z,84.85
2017-10-10T07:34:25.227Z,83.99
2017-10-10T07:35:25.244Z,85.14
2017-10-10T07:36:25.254Z,84.19
2017-10-10T07:37:25.247Z,84.19
2017-10-10T07:38:25.270Z,83.99
2017-10-10T07:39:25.260Z,83.80
2017-10-10T07:40:25.266Z,83.23
2017-10-10T07:41:25.278Z,83.56
2017-10-10T07:42:25.295Z,82.51
2017-10-10T07:43:25.290Z,82.98
2017-10-10T07:44:25.326Z,82.60
2017-10-10T07:45:25.324Z,82.70
2017-10-10T07:46:25.319Z,82.60
2017-10-10T07:47:25.346Z,82.70
2017-10-10T07:48:25.357Z,82.89
2017-10-10T07:49:25.343Z,82.60
2017-10-10T07:50:25.358Z,82.70
2017-10-10T07:51:25.343Z,83.08
2017-10-10T07:52:25.374Z,82.51
2017-10-10T07:53:25.369Z,82.54
2017-10-10T07:54:25.376Z,82.45
2017-10-10T07:55:25.391Z,82.83
2017-10-10T07:56:25.447Z,81.59
2017-10-10T07:57:25.425Z,81.30
2017-10-10T07:58:25.434Z,81.30
2017-10-10T07:59:25.435Z,81.97
2017-10-10T08:00:25.438Z,81.97
2017-10-10T08:01:25.429Z,82.07
2017-10-10T08:02:25.468Z,82.17
2017-10-10T08:03:25.443Z,81.68
2017-10-10T08:04:25.478Z,81.78
2017-10-10T08:05:25.469Z,81.78
2017-10-10T08:06:25.497Z,81.44
2017-10-10T08:07:25.488Z,81.05
2017-10-10T08:08:25.532Z,81.44
2017-10-10T08:09:25.519Z,81.44
2017-10-10T08:10:25.519Z,81.25
2017-10-10T08:11:25.539Z,81.25
2017-10-10T08:12:25.574Z,81.15
2017-10-10T08:13:25.544Z,80.87
2017-10-10T08:14:25.563Z,80.77
2017-10-10T08:15:25.565Z,80.67
2017-10-10T08:16:25.602Z,80.67
2017-10-10T08:17:25.568Z,80.62
2017-10-10T08:18:25.589Z,80.38
2017-10-10T08:19:25.605Z,79.37
2017-10-10T08:20:25.617Z,80.04
2017-10-10T08:21:25.613Z,78.61
2017-10-10T08:22:25.620Z,78.51
2017-10-10T08:23:25.653Z,78.03
2017-10-10T08:24:25.655Z,78.22
2017-10-10T08:25:25.669Z,77.08
2017-10-10T08:26:25.661Z,77.36
2017-10-10T08:27:25.690Z,77.46
2017-10-10T08:28:25.713Z,77.26
2017-10-10T08:29:25.696Z,77.46
2017-10-10T08:30:25.697Z,77.26
2017-10-10T08:31:25.697Z,77.84
2017-10-10T08:32:25.706Z,78.42
2017-10-10T08:33:25.717Z,77.55
2017-10-10T08:34:25.741Z,78.51
2017-10-10T08:35:25.753Z,78.32
2017-10-10T08:36:25.753Z,78.80
2017-10-10T08:37:25.773Z,79.66
2017-10-10T08:38:25.798Z,79.66
2017-10-10T08:39:25.777Z,79.85
2017-10-10T08:40:25.781Z,80.24
2017-10-10T08:41:25.812Z,80.04
2017-10-10T08:42:25.822Z,80.62
2017-10-10T08:43:25.801Z,80.71
2017-10-10T08:44:25.831Z,79.37
2017-10-10T08:45:25.850Z,80.24
2017-10-10T08:46:25.827Z,80.52
2017-10-10T08:47:25.860Z,80.71
2017-10-10T08:48:25.847Z,80.71
2017-10-10T08:49:25.881Z,80.43
2017-10-10T08:50:25.865Z,80.43
2017-10-10T08:51:25.865Z,80.04
2017-10-10T08:52:25.902Z,80.24
2017-10-10T08:53:25.907Z,80.52
2017-10-10T08:54:25.922Z,80.52
2017-10-10T08:55:25.908Z,80.62
2017-10-10T08:56:25.919Z,80.33
2017-10-10T08:57:25.927Z,80.24
2017-10-10T08:58:25.940Z,80.90
2017-10-10T08:59:25.976Z,80.62
2017-10-10T09:00:25.947Z,80.24
2017-10-10T09:01:25.966Z,80.43
2017-10-10T09:02:25.986Z,80.52
2017-10-10T09:03:25.978Z,80.43
2017-10-10T09:04:25.986Z,80.52
2017-10-10T09:05:26.006Z,80.52
2017-10-10T09:06:25.996Z,80.33
2017-10-10T09:07:26.044Z,80.33
2017-10-10T09:08:26.040Z,80.62
2017-10-10T09:09:26.053Z,80.81
2017-10-10T09:10:26.048Z,80.43
2017-10-10T09:11:26.068Z,80.71
2017-10-10T09:12:26.062Z,80.71
2017-10-10T09:13:26.074Z,80.52
2017-10-10T09:14:26.088Z,80.43
2017-10-10T09:15:26.087Z,80.14
2017-10-10T09:16:26.091Z,80.71
2017-10-10T09:17:26.090Z,80.33
2017-10-10T09:18:26.106Z,80.52
2017-10-10T09:19:26.130Z,80.71
2017-10-10T09:20:26.129Z,80.43
2017-10-10T09:21:26.151Z,80.43
2017-10-10T09:22:26.137Z,81.00
2017-10-10T09:23:26.212Z,80.56
2017-10-10T09:24:26.178Z,80.43
2017-10-10T09:25:26.173Z,80.18
2017-10-10T09:26:26.205Z,80.56
2017-10-10T09:27:26.207Z,81.04
2017-10-10T09:28:26.225Z,80.27
2017-10-10T09:29:26.223Z,80.37
2017-10-10T09:30:26.228Z,80.56
2017-10-10T09:31:26.221Z,80.37
2017-10-10T09:32:26.252Z,80.08
2017-10-10T09:33:26.300Z,79.99
2017-10-10T09:34:26.289Z,80.14
2017-10-10T09:35:26.267Z,80.56
2017-10-10T09:36:26.289Z,80.56
2017-10-10T09:37:26.297Z,80.76
2017-10-10T09:38:26.348Z,80.66
2017-10-10T09:39:26.313Z,80.94
2017-10-10T09:40:26.306Z,80.94
2017-10-10T09:41:26.322Z,80.37
2017-10-10T09:42:26.373Z,80.81
2017-10-10T09:43:26.346Z,80.56
2017-10-10T09:44:26.388Z,80.56
2017-10-10T09:45:26.382Z,81.04
2017-10-10T09:46:26.391Z,80.66
2017-10-10T09:47:26.404Z,80.76
2017-10-10T09:48:26.411Z,80.76
2017-10-10T09:49:26.399Z,81.13
2017-10-10T09:50:26.418Z,81.77
2017-10-10T09:51:26.472Z,80.71
2017-10-10T09:52:26.426Z,81.77
2017-10-10T09:53:26.445Z,81.86
2017-10-10T09:54:26.453Z,82.43
2017-10-10T09:55:26.481Z,82.34
2017-10-10T09:56:26.504Z,82.53
2017-10-10T09:57:26.516Z,82.53
2017-10-10T09:58:26.518Z,82.43
2017-10-10T09:59:26.494Z,83.01
2017-10-10T10:00:26.526Z,82.92
2017-10-10T10:01:26.504Z,82.63
2017-10-10T10:02:26.530Z,82.34
2017-10-10T10:03:26.523Z,82.43
2017-10-10T10:04:26.536Z,82.82
2017-10-10T10:05:26.567Z,82.82
2017-10-10T10:06:26.553Z,82.63
2017-10-10T10:07:26.560Z,82.92
2017-10-10T10:08:26.584Z,83.06
2017-10-10T10:09:26.592Z,82.97
2017-10-10T10:10:26.603Z,83.36
2017-10-10T10:11:26.614Z,83.06
2017-10-10T10:12:26.620Z,83.83
2017-10-10T10:13:26.641Z,83.83
2017-10-10T10:14:26.647Z,83.36
2017-10-10T10:15:26.631Z,83.45
2017-10-10T10:16:26.646Z,83.36
2017-10-10T10:17:26.681Z,83.64
2017-10-10T10:18:26.683Z,83.73
2017-10-10T10:19:26.682Z,84.50
2017-10-10T10:20:26.695Z,84.41
2017-10-10T10:21:26.701Z,84.12
2017-10-10T10:22:26.743Z,84.69
2017-10-10T10:23:26.712Z,84.31
2017-10-10T10:24:26.720Z,84.79
2017-10-10T10:25:26.729Z,84.59
2017-10-10T10:26:26.729Z,84.50
2017-10-10T10:27:26.757Z,85.27
2017-10-10T10:28:26.768Z,84.88
2017-10-10T10:29:26.762Z,84.79
2017-10-10T10:30:26.773Z,84.41
2017-10-10T10:31:26.779Z,85.17
2017-10-10T10:32:26.786Z,85.08
2017-10-10T10:33:26.835Z,84.98
2017-10-10T10:34:26.822Z,84.88
2017-10-10T10:35:26.834Z,85.17
2017-10-10T10:36:26.844Z,85.08
2017-10-10T10:37:26.834Z,84.88
2017-10-10T10:38:26.880Z,85.12
2017-10-10T10:39:26.861Z,85.41
2017-10-10T10:40:26.860Z,84.45
2017-10-10T10:41:26.881Z,84.74
2017-10-10T10:42:26.911Z,84.50
2017-10-10T10:43:26.908Z,85.41
2017-10-10T10:44:26.906Z,84.35
2017-10-10T10:45:26.920Z,84.26
2017-10-10T10:46:26.923Z,84.35
2017-10-10T10:47:26.927Z,84.45
2017-10-10T10:48:26.955Z,84.35
2017-10-10T10:49:26.975Z,84.55
2017-10-10T10:50:26.944Z,83.97
2017-10-10T10:51:27.004Z,84.06
2017-10-10T10:52:26.971Z,84.06
2017-10-10T10:53:26.980Z,84.26
2017-10-10T10:54:26.986Z,84.45
2017-10-10T10:55:26.998Z,84.45
2017-10-10T10:56:27.012Z,84.45
2017-10-10T10:57:27.026Z,84.55
2017-10-10T10:58:27.035Z,84.35
2017-10-10T10:59:27.053Z,84.26
2017-10-10T11:00:27.055Z,84.16
2017-10-10T11:01:27.053Z,84.74
2017-10-10T11:02:27.075Z,85.02
2017-10-10T11:03:27.125Z,85.31
2017-10-10T11:04:27.069Z,84.35
2017-10-10T11:05:27.098Z,84.35
2017-10-10T11:06:27.127Z,84.64
2017-10-10T11:07:27.125Z,84.45
2017-10-10T11:08:27.149Z,84.11
2017-10-10T11:09:27.140Z,84.30
2017-10-10T11:10:27.133Z,84.20
2017-10-10T11:11:27.163Z,83.82
2017-10-10T11:12:27.158Z,83.63
2017-10-10T11:13:27.157Z,83.92
2017-10-10T11:14:27.165Z,83.72
2017-10-10T11:15:27.206Z,83.53
2017-10-10T11:16:27.184Z,83.92
2017-10-10T11:17:27.206Z,84.11
2017-10-10T11:18:27.201Z,83.72
2017-10-10T11:19:27.211Z,84.01
2017-10-10T11:20:27.218Z,83.92
2017-10-10T11:21:27.250Z,84.01
2017-10-10T11:22:27.283Z,84.01
2017-10-10T11:23:27.273Z,84.01
2017-10-10T11:24:27.304Z,84.39
2017-10-10T11:25:27.271Z,84.20
2017-10-10T11:26:27.311Z,85.35
2017-10-10T11:27:27.283Z,85.25
2017-10-10T11:28:27.304Z,84.97
2017-10-10T11:29:27.303Z,85.16
2017-10-10T11:30:27.329Z,85.02
2017-10-10T11:31:27.332Z,84.58
2017-10-10T11:32:27.331Z,84.58
2017-10-10T11:33:27.345Z,85.35
2017-10-10T11:34:27.355Z,84.58
2017-10-10T11:35:27.357Z,84.39
2017-10-10T11:36:27.409Z,84.49
2017-10-10T11:37:27.383Z,84.58
2017-10-10T11:38:27.398Z,84.49
2017-10-10T11:39:27.425Z,84.49
2017-10-10T11:40:27.416Z,84.11
2017-10-10T11:41:27.440Z,84.39
2017-10-10T11:42:27.435Z,84.49
2017-10-10T11:43:27.440Z,84.39
2017-10-10T11:44:27.460Z,84.49
2017-10-10T11:45:27.476Z,84.26
2017-10-10T11:46:27.493Z,84.26
2017-10-10T11:47:27.486Z,84.16
2017-10-10T11:48:27.501Z,84.88
2017-10-10T11:49:27.503Z,84.74
2017-10-10T11:50:27.522Z,84.74
2017-10-10T11:51:27.514Z,85.02
2017-10-10T11:52:27.539Z,85.12
2017-10-10T11:53:27.549Z,85.02
2017-10-10T11:54:27.577Z,84.74
2017-10-10T11:55:27.568Z,84.49
2017-10-10T11:56:27.578Z,84.16
2017-10-10T11:57:27.581Z,85.31
2017-10-10T11:58:27.594Z,84.64
2017-10-10T11:59:27.612Z,85.06
2017-10-10T12:00:27.602Z,84.64
2017-10-10T12:01:27.616Z,85.02
2017-10-10T12:02:27.617Z,85.12
2017-10-10T12:03:27.636Z,84.92
2017-10-10T12:04:27.652Z,85.12
2017-10-10T12:05:27.657Z,84.55
2017-10-10T12:06:27.649Z,84.39
2017-10-10T12:07:27.678Z,84.39
2017-10-10T12:08:27.701Z,84.68
2017-10-10T12:09:27.713Z,84.39
2017-10-10T12:10:27.702Z,84.49
2017-10-10T12:11:27.738Z,84.01
2017-10-10T12:12:27.724Z,84.11
2017-10-10T12:13:27.745Z,84.39
2017-10-10T12:14:27.789Z,84.20
2017-10-10T12:15:27.742Z,84.11
2017-10-10T12:16:27.773Z,83.72
2017-10-10T12:17:27.772Z,84.39
2017-10-10T12:18:27.826Z,84.49
2017-10-10T12:19:27.812Z,84.20
2017-10-10T12:20:27.823Z,84.39
2017-10-10T12:21:27.792Z,84.06
2017-10-10T12:22:27.826Z,84.92
2017-10-10T12:23:27.839Z,84.35
2017-10-10T12:24:27.837Z,84.55
2017-10-10T12:25:27.826Z,84.26
2017-10-10T12:26:27.870Z,84.35
2017-10-10T12:27:27.857Z,84.26
2017-10-10T12:28:27.909Z,84.58
2017-10-10T12:29:27.907Z,84.68
2017-10-10T12:30:27.879Z,84.39
2017-10-10T12:31:27.929Z,84.68
2017-10-10T12:32:27.927Z,84.64
2017-10-10T12:33:27.913Z,84.74
2017-10-10T12:34:27.930Z,84.45
2017-10-10T12:35:27.936Z,84.83
2017-10-10T12:36:27.945Z,85.02
2017-10-10T12:37:27.954Z,85.12
2017-10-10T12:38:27.960Z,85.02
2017-10-10T12:39:27.966Z,85.60
2017-10-10T12:40:27.996Z,85.21
2017-10-10T12:41:28.018Z,85.69
2017-10-10T12:42:27.995Z,85.98
2017-10-10T12:43:28.013Z,85.88
2017-10-10T12:44:28.013Z,85.88
2017-10-10T12:45:28.047Z,85.88
2017-10-10T12:46:28.034Z,85.88
2017-10-10T12:47:28.050Z,86.08
2017-10-10T12:48:28.106Z,86.08
2017-10-10T12:49:28.075Z,86.17
2017-10-10T12:50:28.083Z,85.98
2017-10-10T12:51:28.080Z,85.79
2017-10-10T12:52:28.132Z,86.27